Nearby METAR Reports

KLWM - Lawrence,MA, USA
Distance from station: NE 12mi, 19km
Updated: Sun, 22-Oct-2017 11:54pm EDT
Overcast
Overcast
 Wind from calm
Wind: Calm
Temperature: 57°F , 14°C
Dew Point: 54°F , 12°C
Humidity: 88%
Barometer: 30.43 inHg , 1030.5 hPa
Clouds: Overcast
Visibility: 10 miles , 16 km
Cloud details: Overcast 500 ft
2017/10/23 03:54 KLWM 230354Z AUTO 00000KT 10SM OVC005 14/12 A3043 RMK AO2 SLP303 T01390117
KBED - Bedford,MA, USA
Distance from station: SSE 12mi, 19km
Updated: Sun, 22-Oct-2017 11:56pm EDT
Overcast
Overcast
 Wind from calm
Wind: Calm
Temperature: 55°F , 13°C
Dew Point: 52°F , 11°C
Humidity: 88%
Barometer: 30.40 inHg , 1029.5 hPa
Clouds: Overcast
Visibility: 10 miles , 16 km
Cloud details: Overcast 600 ft
2017/10/23 03:56 KBED 230356Z AUTO 00000KT 10SM OVC006 13/11 A3040 RMK AO2 SLP306 T01280106

Metar display script from Saratoga-Weather.org